Terminal Aerodrome Forecast
Issued by NWS

Home | Current Version | Previous Version | Text Only | Print | Product List | Glossary On
Versions: 1 2 3 4 5 6 7 8 9 10 11 12 13 14 15 16 17 18 19 20 21 22 23 24 25 26 27 28 29
000
FTPA31 PHFO 270535
TAFHNY
TAF
PHNY 270535Z 2706/2806 06010KT P6SM BKN020
     FM271000 06005KT P6SM SCT020
     FM272000 29008KT P6SM SCT015 BKN025
      TEMPO 2721/2801 BKN015
     FM280200 05015KT P6SM SCT025=

USA.gov is the U.S. government's official web portal to all federal, state and local government web resources and services.